sensor_id;sensor_type;location;lat;lon;timestamp;temperature;humidity
15394;DHT22;7795;47.986;11.868;2024-02-23T00:01:50;11.90;77.60
15394;DHT22;7795;47.986;11.868;2024-02-23T00:04:16;11.80;77.60
15394;DHT22;7795;47.986;11.868;2024-02-23T00:06:45;11.70;77.60
15394;DHT22;7795;47.986;11.868;2024-02-23T00:09:11;11.60;77.40
15394;DHT22;7795;47.986;11.868;2024-02-23T00:11:39;11.50;77.40
15394;DHT22;7795;47.986;11.868;2024-02-23T00:14:06;11.40;77.60
15394;DHT22;7795;47.986;11.868;2024-02-23T00:16:37;11.40;77.70
15394;DHT22;7795;47.986;11.868;2024-02-23T00:19:04;11.30;77.70
15394;DHT22;7795;47.986;11.868;2024-02-23T00:21:29;11.30;77.90
15394;DHT22;7795;47.986;11.868;2024-02-23T00:23:56;11.20;77.90
15394;DHT22;7795;47.986;11.868;2024-02-23T00:26:22;11.20;78.00
15394;DHT22;7795;47.986;11.868;2024-02-23T00:28:48;11.20;78.00
15394;DHT22;7795;47.986;11.868;2024-02-23T00:31:14;11.20;78.10
15394;DHT22;7795;47.986;11.868;2024-02-23T00:33:39;11.10;77.80
15394;DHT22;7795;47.986;11.868;2024-02-23T00:36:07;11.10;77.80
15394;DHT22;7795;47.986;11.868;2024-02-23T00:38:33;11.10;77.70
15394;DHT22;7795;47.986;11.868;2024-02-23T00:41:00;11.10;77.70
15394;DHT22;7795;47.986;11.868;2024-02-23T00:43:26;11.10;77.70
15394;DHT22;7795;47.986;11.868;2024-02-23T00:45:54;11.00;77.70
15394;DHT22;7795;47.986;11.868;2024-02-23T00:48:20;11.00;77.70
15394;DHT22;7795;47.986;11.868;2024-02-23T00:50:46;11.00;77.80
15394;DHT22;7795;47.986;11.868;2024-02-23T00:53:12;11.00;77.90
15394;DHT22;7795;47.986;11.868;2024-02-23T00:55:37;11.00;78.00
15394;DHT22;7795;47.986;11.868;2024-02-23T00:58:05;11.00;77.90
15394;DHT22;7795;47.986;11.868;2024-02-23T01:00:30;11.00;77.80
15394;DHT22;7795;47.986;11.868;2024-02-23T01:02:56;10.90;77.70
15394;DHT22;7795;47.986;11.868;2024-02-23T01:05:24;10.90;77.80
15394;DHT22;7795;47.986;11.868;2024-02-23T01:07:50;10.90;77.90
15394;DHT22;7795;47.986;11.868;2024-02-23T01:10:16;10.90;77.80
15394;DHT22;7795;47.986;11.868;2024-02-23T01:12:42;10.90;77.70
15394;DHT22;7795;47.986;11.868;2024-02-23T01:15:09;10.90;77.60
15394;DHT22;7795;47.986;11.868;2024-02-23T01:17:35;10.80;77.50
15394;DHT22;7795;47.986;11.868;2024-02-23T01:20:01;10.80;77.60
15394;DHT22;7795;47.986;11.868;2024-02-23T01:22:26;10.80;77.60
15394;DHT22;7795;47.986;11.868;2024-02-23T01:24:52;10.80;77.50
15394;DHT22;7795;47.986;11.868;2024-02-23T01:27:19;10.80;77.40
15394;DHT22;7795;47.986;11.868;2024-02-23T01:29:44;10.70;77.30
15394;DHT22;7795;47.986;11.868;2024-02-23T01:32:11;10.70;77.40
15394;DHT22;7795;47.986;11.868;2024-02-23T01:34:37;10.70;77.40
15394;DHT22;7795;47.986;11.868;2024-02-23T01:37:03;10.70;77.40
15394;DHT22;7795;47.986;11.868;2024-02-23T01:39:29;10.70;77.30
15394;DHT22;7795;47.986;11.868;2024-02-23T01:41:54;10.70;77.30
15394;DHT22;7795;47.986;11.868;2024-02-23T01:44:20;10.70;77.30
15394;DHT22;7795;47.986;11.868;2024-02-23T01:46:47;10.60;77.30
15394;DHT22;7795;47.986;11.868;2024-02-23T01:49:14;10.60;77.30
15394;DHT22;7795;47.986;11.868;2024-02-23T01:51:40;10.60;77.20
15394;DHT22;7795;47.986;11.868;2024-02-23T01:54:08;10.60;77.20
15394;DHT22;7795;47.986;11.868;2024-02-23T01:56:34;10.60;77.20
15394;DHT22;7795;47.986;11.868;2024-02-23T01:59:02;10.50;77.20
15394;DHT22;7795;47.986;11.868;2024-02-23T02:01:29;10.50;77.20
15394;DHT22;7795;47.986;11.868;2024-02-23T02:03:57;10.50;77.30
15394;DHT22;7795;47.986;11.868;2024-02-23T02:06:25;10.50;77.30
15394;DHT22;7795;47.986;11.868;2024-02-23T02:08:51;10.50;77.30
15394;DHT22;7795;47.986;11.868;2024-02-23T02:11:16;10.50;77.30
15394;DHT22;7795;47.986;11.868;2024-02-23T02:13:42;10.40;77.10
15394;DHT22;7795;47.986;11.868;2024-02-23T02:16:08;10.50;77.00
15394;DHT22;7795;47.986;11.868;2024-02-23T02:18:34;10.50;77.10
15394;DHT22;7795;47.986;11.868;2024-02-23T02:21:00;10.40;77.00
15394;DHT22;7795;47.986;11.868;2024-02-23T02:23:27;10.40;77.00
15394;DHT22;7795;47.986;11.868;2024-02-23T02:25:53;10.40;76.90
15394;DHT22;7795;47.986;11.868;2024-02-23T02:28:19;10.40;76.90
15394;DHT22;7795;47.986;11.868;2024-02-23T02:30:45;10.40;76.80
15394;DHT22;7795;47.986;11.868;2024-02-23T02:33:10;10.30;76.80
15394;DHT22;7795;47.986;11.868;2024-02-23T02:35:36;10.30;76.80
15394;DHT22;7795;47.986;11.868;2024-02-23T02:38:02;10.30;76.80
15394;DHT22;7795;47.986;11.868;2024-02-23T02:40:29;10.30;76.90
15394;DHT22;7795;47.986;11.868;2024-02-23T02:42:55;10.30;76.70
15394;DHT22;7795;47.986;11.868;2024-02-23T02:45:21;10.30;76.50
15394;DHT22;7795;47.986;11.868;2024-02-23T02:47:47;10.30;76.40
15394;DHT22;7795;47.986;11.868;2024-02-23T02:50:12;10.30;76.30
15394;DHT22;7795;47.986;11.868;2024-02-23T02:52:38;10.30;76.40
15394;DHT22;7795;47.986;11.868;2024-02-23T02:55:04;10.20;76.40
15394;DHT22;7795;47.986;11.868;2024-02-23T02:57:31;10.20;76.30
15394;DHT22;7795;47.986;11.868;2024-02-23T02:59:57;10.20;76.20
15394;DHT22;7795;47.986;11.868;2024-02-23T03:02:23;10.20;76.20
15394;DHT22;7795;47.986;11.868;2024-02-23T03:04:49;10.20;76.30
15394;DHT22;7795;47.986;11.868;2024-02-23T03:07:15;10.20;76.20
15394;DHT22;7795;47.986;11.868;2024-02-23T03:09:41;10.30;76.10
15394;DHT22;7795;47.986;11.868;2024-02-23T03:12:07;10.20;75.90
15394;DHT22;7795;47.986;11.868;2024-02-23T03:14:35;10.20;75.90
15394;DHT22;7795;47.986;11.868;2024-02-23T03:17:01;10.20;75.80
15394;DHT22;7795;47.986;11.868;2024-02-23T03:19:27;10.20;75.80
15394;DHT22;7795;47.986;11.868;2024-02-23T03:21:53;10.20;75.80
15394;DHT22;7795;47.986;11.868;2024-02-23T03:24:18;10.20;75.80
15394;DHT22;7795;47.986;11.868;2024-02-23T03:26:44;10.20;75.70
15394;DHT22;7795;47.986;11.868;2024-02-23T03:29:10;10.20;75.60
15394;DHT22;7795;47.986;11.868;2024-02-23T03:31:37;10.20;75.70
15394;DHT22;7795;47.986;11.868;2024-02-23T03:34:03;10.20;75.60
15394;DHT22;7795;47.986;11.868;2024-02-23T03:36:29;10.10;75.40
15394;DHT22;7795;47.986;11.868;2024-02-23T03:38:55;10.10;75.00
15394;DHT22;7795;47.986;11.868;2024-02-23T03:41:20;10.10;74.80
15394;DHT22;7795;47.986;11.868;2024-02-23T03:43:46;10.10;74.90
15394;DHT22;7795;47.986;11.868;2024-02-23T03:46:12;10.10;75.80
15394;DHT22;7795;47.986;11.868;2024-02-23T03:48:39;10.00;74.70
15394;DHT22;7795;47.986;11.868;2024-02-23T03:51:05;10.00;74.80
15394;DHT22;7795;47.986;11.868;2024-02-23T03:53:31;10.00;74.80
15394;DHT22;7795;47.986;11.868;2024-02-23T03:55:57;10.00;74.80
15394;DHT22;7795;47.986;11.868;2024-02-23T03:58:23;10.00;74.80
15394;DHT22;7795;47.986;11.868;2024-02-23T04:00:48;10.00;75.30
15394;DHT22;7795;47.986;11.868;2024-02-23T04:03:14;10.00;74.90
15394;DHT22;7795;47.986;11.868;2024-02-23T04:05:41;10.00;74.90
15394;DHT22;7795;47.986;11.868;2024-02-23T04:08:07;10.00;74.90
15394;DHT22;7795;47.986;11.868;2024-02-23T04:10:33;10.00;74.90
15394;DHT22;7795;47.986;11.868;2024-02-23T04:12:59;10.00;74.90
15394;DHT22;7795;47.986;11.868;2024-02-23T04:15:25;10.00;74.90
15394;DHT22;7795;47.986;11.868;2024-02-23T04:17:51;10.00;74.80
15394;DHT22;7795;47.986;11.868;2024-02-23T04:20:16;10.00;74.80
15394;DHT22;7795;47.986;11.868;2024-02-23T04:22:44;9.90;74.70
15394;DHT22;7795;47.986;11.868;2024-02-23T04:25:09;9.90;74.80
15394;DHT22;7795;47.986;11.868;2024-02-23T04:27:35;9.90;75.00
15394;DHT22;7795;47.986;11.868;2024-02-23T04:30:01;9.90;75.10
15394;DHT22;7795;47.986;11.868;2024-02-23T04:32:28;9.90;75.10
15394;DHT22;7795;47.986;11.868;2024-02-23T04:34:53;10.00;75.20
15394;DHT22;7795;47.986;11.868;2024-02-23T04:37:19;10.00;75.10
15394;DHT22;7795;47.986;11.868;2024-02-23T04:39:46;10.00;75.10
15394;DHT22;7795;47.986;11.868;2024-02-23T04:42:12;10.00;75.20
15394;DHT22;7795;47.986;11.868;2024-02-23T04:44:37;10.00;75.20
15394;DHT22;7795;47.986;11.868;2024-02-23T04:47:03;10.00;75.20
15394;DHT22;7795;47.986;11.868;2024-02-23T04:49:29;10.00;75.30
15394;DHT22;7795;47.986;11.868;2024-02-23T04:51:55;10.00;75.30
15394;DHT22;7795;47.986;11.868;2024-02-23T04:54:20;10.10;75.40
15394;DHT22;7795;47.986;11.868;2024-02-23T04:56:48;10.10;75.50
15394;DHT22;7795;47.986;11.868;2024-02-23T04:59:14;10.10;75.60
15394;DHT22;7795;47.986;11.868;2024-02-23T05:01:40;10.10;75.70
15394;DHT22;7795;47.986;11.868;2024-02-23T05:04:05;10.10;75.70
15394;DHT22;7795;47.986;11.868;2024-02-23T05:06:31;10.10;75.60
15394;DHT22;7795;47.986;11.868;2024-02-23T05:08:57;10.10;75.60
15394;DHT22;7795;47.986;11.868;2024-02-23T05:11:23;10.10;75.70
15394;DHT22;7795;47.986;11.868;2024-02-23T05:13:50;10.10;75.80
15394;DHT22;7795;47.986;11.868;2024-02-23T05:16:16;10.10;75.80
15394;DHT22;7795;47.986;11.868;2024-02-23T05:18:41;10.10;75.80
15394;DHT22;7795;47.986;11.868;2024-02-23T05:21:07;10.10;75.70
15394;DHT22;7795;47.986;11.868;2024-02-23T05:23:33;10.10;75.80
15394;DHT22;7795;47.986;11.868;2024-02-23T05:25:59;10.10;75.90
15394;DHT22;7795;47.986;11.868;2024-02-23T05:28:25;10.00;76.00
15394;DHT22;7795;47.986;11.868;2024-02-23T05:30:52;10.00;76.10
15394;DHT22;7795;47.986;11.868;2024-02-23T05:33:18;10.00;76.20
15394;DHT22;7795;47.986;11.868;2024-02-23T05:35:46;10.00;76.30
15394;DHT22;7795;47.986;11.868;2024-02-23T05:38:12;10.00;76.40
15394;DHT22;7795;47.986;11.868;2024-02-23T05:40:37;10.00;76.60
15394;DHT22;7795;47.986;11.868;2024-02-23T05:43:03;10.00;76.70
15394;DHT22;7795;47.986;11.868;2024-02-23T05:45:29;10.00;76.80
15394;DHT22;7795;47.986;11.868;2024-02-23T05:47:56;10.00;76.70
15394;DHT22;7795;47.986;11.868;2024-02-23T05:50:22;10.00;76.70
15394;DHT22;7795;47.986;11.868;2024-02-23T05:52:48;9.90;76.70
15394;DHT22;7795;47.986;11.868;2024-02-23T05:55:13;9.90;76.70
15394;DHT22;7795;47.986;11.868;2024-02-23T05:57:40;9.90;76.70
15394;DHT22;7795;47.986;11.868;2024-02-23T06:00:07;9.90;76.60
15394;DHT22;7795;47.986;11.868;2024-02-23T06:02:36;9.90;76.40
15394;DHT22;7795;47.986;11.868;2024-02-23T06:05:04;9.90;76.10
15394;DHT22;7795;47.986;11.868;2024-02-23T06:07:30;9.80;75.50
15394;DHT22;7795;47.986;11.868;2024-02-23T06:09:56;9.80;75.30
15394;DHT22;7795;47.986;11.868;2024-02-23T06:12:22;9.80;75.50
15394;DHT22;7795;47.986;11.868;2024-02-23T06:14:48;9.70;75.40
15394;DHT22;7795;47.986;11.868;2024-02-23T06:17:14;9.70;75.50
15394;DHT22;7795;47.986;11.868;2024-02-23T06:19:39;9.70;75.60
15394;DHT22;7795;47.986;11.868;2024-02-23T06:22:06;9.70;75.70
15394;DHT22;7795;47.986;11.868;2024-02-23T06:24:33;9.70;75.60
15394;DHT22;7795;47.986;11.868;2024-02-23T06:26:59;9.70;75.60
15394;DHT22;7795;47.986;11.868;2024-02-23T06:29:25;9.70;75.60
15394;DHT22;7795;47.986;11.868;2024-02-23T06:31:51;9.80;75.70
15394;DHT22;7795;47.986;11.868;2024-02-23T06:34:16;9.70;75.60
15394;DHT22;7795;47.986;11.868;2024-02-23T06:36:42;9.70;75.70
15394;DHT22;7795;47.986;11.868;2024-02-23T06:39:09;9.80;75.60
15394;DHT22;7795;47.986;11.868;2024-02-23T06:41:37;9.80;75.60
15394;DHT22;7795;47.986;11.868;2024-02-23T06:44:04;9.70;75.50
15394;DHT22;7795;47.986;11.868;2024-02-23T06:46:30;9.70;75.30
15394;DHT22;7795;47.986;11.868;2024-02-23T06:48:56;9.70;75.30
15394;DHT22;7795;47.986;11.868;2024-02-23T06:51:22;9.70;75.30
15394;DHT22;7795;47.986;11.868;2024-02-23T06:53:47;9.70;75.20
15394;DHT22;7795;47.986;11.868;2024-02-23T06:56:15;9.70;75.10
15394;DHT22;7795;47.986;11.868;2024-02-23T06:58:40;9.70;75.10
15394;DHT22;7795;47.986;11.868;2024-02-23T07:01:06;9.60;75.10
15394;DHT22;7795;47.986;11.868;2024-02-23T07:03:32;9.60;75.10
15394;DHT22;7795;47.986;11.868;2024-02-23T07:05:58;9.60;75.10
15394;DHT22;7795;47.986;11.868;2024-02-23T07:08:23;9.60;75.20
15394;DHT22;7795;47.986;11.868;2024-02-23T07:10:49;9.60;75.30
15394;DHT22;7795;47.986;11.868;2024-02-23T07:13:16;9.60;75.40
15394;DHT22;7795;47.986;11.868;2024-02-23T07:15:43;9.60;75.50
15394;DHT22;7795;47.986;11.868;2024-02-23T07:18:09;9.60;75.60
15394;DHT22;7795;47.986;11.868;2024-02-23T07:20:35;9.60;75.60
15394;DHT22;7795;47.986;11.868;2024-02-23T07:23:01;9.60;75.70
15394;DHT22;7795;47.986;11.868;2024-02-23T07:25:27;9.60;75.70
15394;DHT22;7795;47.986;11.868;2024-02-23T07:27:52;9.60;75.60
15394;DHT22;7795;47.986;11.868;2024-02-23T07:30:19;9.60;75.50
15394;DHT22;7795;47.986;11.868;2024-02-23T07:32:46;9.60;75.50
15394;DHT22;7795;47.986;11.868;2024-02-23T07:35:12;9.60;75.50
15394;DHT22;7795;47.986;11.868;2024-02-23T07:37:37;9.60;75.30
15394;DHT22;7795;47.986;11.868;2024-02-23T07:40:04;9.60;75.30
15394;DHT22;7795;47.986;11.868;2024-02-23T07:42:31;9.50;75.30
15394;DHT22;7795;47.986;11.868;2024-02-23T07:44:57;9.50;75.30
15394;DHT22;7795;47.986;11.868;2024-02-23T07:47:24;9.50;76.10
15394;DHT22;7795;47.986;11.868;2024-02-23T07:49:52;9.50;75.50
15394;DHT22;7795;47.986;11.868;2024-02-23T07:52:19;9.50;75.50
15394;DHT22;7795;47.986;11.868;2024-02-23T07:54:45;9.50;75.50
15394;DHT22;7795;47.986;11.868;2024-02-23T07:57:10;9.60;75.50
15394;DHT22;7795;47.986;11.868;2024-02-23T07:59:36;9.50;75.10
15394;DHT22;7795;47.986;11.868;2024-02-23T08:02:02;9.60;75.10
15394;DHT22;7795;47.986;11.868;2024-02-23T08:04:29;9.60;75.10
15394;DHT22;7795;47.986;11.868;2024-02-23T08:06:55;9.60;75.10
15394;DHT22;7795;47.986;11.868;2024-02-23T08:09:21;9.60;74.90
15394;DHT22;7795;47.986;11.868;2024-02-23T08:11:48;9.60;74.90
15394;DHT22;7795;47.986;11.868;2024-02-23T08:14:14;9.60;74.80
15394;DHT22;7795;47.986;11.868;2024-02-23T08:16:40;9.60;74.70
15394;DHT22;7795;47.986;11.868;2024-02-23T08:19:06;9.60;74.60
15394;DHT22;7795;47.986;11.868;2024-02-23T08:21:33;9.60;74.60
15394;DHT22;7795;47.986;11.868;2024-02-23T08:23:59;9.60;74.60
15394;DHT22;7795;47.986;11.868;2024-02-23T08:26:25;9.60;74.80
15394;DHT22;7795;47.986;11.868;2024-02-23T08:28:51;9.60;74.80
15394;DHT22;7795;47.986;11.868;2024-02-23T08:31:16;9.60;74.90
15394;DHT22;7795;47.986;11.868;2024-02-23T08:33:42;9.60;74.90
15394;DHT22;7795;47.986;11.868;2024-02-23T08:36:09;9.60;74.80
15394;DHT22;7795;47.986;11.868;2024-02-23T08:38:37;9.60;74.70
15394;DHT22;7795;47.986;11.868;2024-02-23T08:41:03;9.60;74.60
15394;DHT22;7795;47.986;11.868;2024-02-23T08:43:29;9.60;74.50
15394;DHT22;7795;47.986;11.868;2024-02-23T08:45:55;9.60;74.50
15394;DHT22;7795;47.986;11.868;2024-02-23T08:48:21;9.70;74.60
15394;DHT22;7795;47.986;11.868;2024-02-23T08:50:47;9.70;74.60
15394;DHT22;7795;47.986;11.868;2024-02-23T08:53:12;9.70;74.40
15394;DHT22;7795;47.986;11.868;2024-02-23T08:55:40;9.70;74.30
15394;DHT22;7795;47.986;11.868;2024-02-23T08:58:06;9.70;74.20
15394;DHT22;7795;47.986;11.868;2024-02-23T09:00:31;9.70;73.90
15394;DHT22;7795;47.986;11.868;2024-02-23T09:02:57;9.70;73.60
15394;DHT22;7795;47.986;11.868;2024-02-23T09:05:23;9.80;73.40
15394;DHT22;7795;47.986;11.868;2024-02-23T09:07:49;9.70;72.90
15394;DHT22;7795;47.986;11.868;2024-02-23T09:10:15;9.70;72.80
15394;DHT22;7795;47.986;11.868;2024-02-23T09:12:42;9.70;72.80
15394;DHT22;7795;47.986;11.868;2024-02-23T09:15:08;9.70;72.80
15394;DHT22;7795;47.986;11.868;2024-02-23T09:17:34;9.70;72.80
15394;DHT22;7795;47.986;11.868;2024-02-23T09:20:00;9.70;72.60
15394;DHT22;7795;47.986;11.868;2024-02-23T09:22:26;9.60;72.60
15394;DHT22;7795;47.986;11.868;2024-02-23T09:24:52;9.60;72.80
15394;DHT22;7795;47.986;11.868;2024-02-23T09:27:20;9.60;72.80
15394;DHT22;7795;47.986;11.868;2024-02-23T09:29:47;9.60;72.50
15394;DHT22;7795;47.986;11.868;2024-02-23T09:32:13;9.60;72.50
15394;DHT22;7795;47.986;11.868;2024-02-23T09:34:39;9.60;72.60
15394;DHT22;7795;47.986;11.868;2024-02-23T09:37:04;9.60;72.70
15394;DHT22;7795;47.986;11.868;2024-02-23T09:39:30;9.60;72.80
15394;DHT22;7795;47.986;11.868;2024-02-23T09:41:56;9.60;72.80
15394;DHT22;7795;47.986;11.868;2024-02-23T09:44:23;9.60;72.70
15394;DHT22;7795;47.986;11.868;2024-02-23T09:46:50;9.60;73.50
15394;DHT22;7795;47.986;11.868;2024-02-23T09:49:16;9.60;72.50
15394;DHT22;7795;47.986;11.868;2024-02-23T09:51:43;9.60;72.50
15394;DHT22;7795;47.986;11.868;2024-02-23T09:54:09;9.60;72.60
15394;DHT22;7795;47.986;11.868;2024-02-23T09:56:35;9.60;72.70
15394;DHT22;7795;47.986;11.868;2024-02-23T09:59:03;9.50;72.60
15394;DHT22;7795;47.986;11.868;2024-02-23T10:01:30;9.50;72.60
15394;DHT22;7795;47.986;11.868;2024-02-23T10:04:01;9.40;72.90
15394;DHT22;7795;47.986;11.868;2024-02-23T10:06:30;9.40;73.00
15394;DHT22;7795;47.986;11.868;2024-02-23T10:08:56;9.30;72.90
15394;DHT22;7795;47.986;11.868;2024-02-23T10:11:23;9.30;73.00
15394;DHT22;7795;47.986;11.868;2024-02-23T10:13:49;9.20;73.10
15394;DHT22;7795;47.986;11.868;2024-02-23T10:16:15;9.20;73.20
15394;DHT22;7795;47.986;11.868;2024-02-23T10:18:41;9.10;73.20
15394;DHT22;7795;47.986;11.868;2024-02-23T10:21:08;9.10;73.30
15394;DHT22;7795;47.986;11.868;2024-02-23T10:23:34;9.00;73.40
15394;DHT22;7795;47.986;11.868;2024-02-23T10:26:00;9.00;73.70
15394;DHT22;7795;47.986;11.868;2024-02-23T10:28:27;9.00;73.90
15394;DHT22;7795;47.986;11.868;2024-02-23T10:30:53;9.00;74.10
15394;DHT22;7795;47.986;11.868;2024-02-23T10:33:22;9.00;74.10
15394;DHT22;7795;47.986;11.868;2024-02-23T10:35:51;9.00;74.20
15394;DHT22;7795;47.986;11.868;2024-02-23T10:38:20;9.00;74.30
15394;DHT22;7795;47.986;11.868;2024-02-23T10:40:47;9.00;74.20
15394;DHT22;7795;47.986;11.868;2024-02-23T10:43:19;9.00;74.30
15394;DHT22;7795;47.986;11.868;2024-02-23T10:45:45;9.00;74.20
15394;DHT22;7795;47.986;11.868;2024-02-23T10:48:11;9.00;74.30
15394;DHT22;7795;47.986;11.868;2024-02-23T10:50:38;9.00;74.40
15394;DHT22;7795;47.986;11.868;2024-02-23T10:53:07;9.00;74.40
15394;DHT22;7795;47.986;11.868;2024-02-23T10:55:36;9.00;74.30
15394;DHT22;7795;47.986;11.868;2024-02-23T10:58:02;9.00;74.20
15394;DHT22;7795;47.986;11.868;2024-02-23T11:00:29;9.00;74.20
15394;DHT22;7795;47.986;11.868;2024-02-23T11:02:55;9.00;74.10
15394;DHT22;7795;47.986;11.868;2024-02-23T11:05:23;9.00;74.00
15394;DHT22;7795;47.986;11.868;2024-02-23T11:07:49;9.00;73.90
15394;DHT22;7795;47.986;11.868;2024-02-23T11:10:17;8.90;73.90
15394;DHT22;7795;47.986;11.868;2024-02-23T11:12:44;8.90;73.90
15394;DHT22;7795;47.986;11.868;2024-02-23T11:15:26;8.90;74.00
15394;DHT22;7795;47.986;11.868;2024-02-23T11:17:52;8.90;73.90
15394;DHT22;7795;47.986;11.868;2024-02-23T11:20:17;8.90;74.10
15394;DHT22;7795;47.986;11.868;2024-02-23T11:22:43;8.90;74.10
15394;DHT22;7795;47.986;11.868;2024-02-23T11:25:09;8.90;74.10
15394;DHT22;7795;47.986;11.868;2024-02-23T11:27:37;8.90;74.20
15394;DHT22;7795;47.986;11.868;2024-02-23T11:30:06;8.90;74.00
15394;DHT22;7795;47.986;11.868;2024-02-23T11:32:37;8.90;73.80
15394;DHT22;7795;47.986;11.868;2024-02-23T11:35:07;8.90;73.70
15394;DHT22;7795;47.986;11.868;2024-02-23T11:37:44;8.90;73.80
15394;DHT22;7795;47.986;11.868;2024-02-23T11:40:12;8.90;73.80
15394;DHT22;7795;47.986;11.868;2024-02-23T11:42:39;8.90;73.90
15394;DHT22;7795;47.986;11.868;2024-02-23T11:45:08;8.90;73.90
15394;DHT22;7795;47.986;11.868;2024-02-23T11:47:34;8.90;73.90
15394;DHT22;7795;47.986;11.868;2024-02-23T11:50:00;8.90;73.90
15394;DHT22;7795;47.986;11.868;2024-02-23T11:52:26;8.90;73.90
15394;DHT22;7795;47.986;11.868;2024-02-23T11:54:52;8.90;73.70
15394;DHT22;7795;47.986;11.868;2024-02-23T11:57:18;9.00;73.80
15394;DHT22;7795;47.986;11.868;2024-02-23T11:59:44;9.00;73.80
15394;DHT22;7795;47.986;11.868;2024-02-23T12:02:12;9.00;73.80
15394;DHT22;7795;47.986;11.868;2024-02-23T12:04:38;9.00;73.80
15394;DHT22;7795;47.986;11.868;2024-02-23T12:07:04;9.00;73.80
15394;DHT22;7795;47.986;11.868;2024-02-23T12:09:30;9.00;73.40
15394;DHT22;7795;47.986;11.868;2024-02-23T12:11:56;9.00;73.40
15394;DHT22;7795;47.986;11.868;2024-02-23T12:14:22;9.10;73.50
15394;DHT22;7795;47.986;11.868;2024-02-23T12:16:48;9.10;73.40
15394;DHT22;7795;47.986;11.868;2024-02-23T12:19:15;9.20;73.20
15394;DHT22;7795;47.986;11.868;2024-02-23T12:21:41;9.10;72.90
15394;DHT22;7795;47.986;11.868;2024-02-23T12:24:10;9.20;72.80
15394;DHT22;7795;47.986;11.868;2024-02-23T12:26:37;9.20;72.70
15394;DHT22;7795;47.986;11.868;2024-02-23T12:29:03;9.20;72.80
15394;DHT22;7795;47.986;11.868;2024-02-23T12:31:31;9.20;72.80
15394;DHT22;7795;47.986;11.868;2024-02-23T12:33:57;9.20;72.40
15394;DHT22;7795;47.986;11.868;2024-02-23T12:36:24;9.20;72.30
15394;DHT22;7795;47.986;11.868;2024-02-23T12:38:50;9.20;72.30
15394;DHT22;7795;47.986;11.868;2024-02-23T12:41:16;9.20;72.40
15394;DHT22;7795;47.986;11.868;2024-02-23T12:43:41;9.20;72.30
15394;DHT22;7795;47.986;11.868;2024-02-23T12:46:07;9.20;72.30
15394;DHT22;7795;47.986;11.868;2024-02-23T12:48:34;9.20;72.20
15394;DHT22;7795;47.986;11.868;2024-02-23T12:51:00;9.20;72.10
15394;DHT22;7795;47.986;11.868;2024-02-23T12:53:35;9.20;72.00
15394;DHT22;7795;47.986;11.868;2024-02-23T12:56:05;9.30;71.90
15394;DHT22;7795;47.986;11.868;2024-02-23T12:58:31;9.20;72.00
15394;DHT22;7795;47.986;11.868;2024-02-23T13:00:57;9.20;72.00
15394;DHT22;7795;47.986;11.868;2024-02-23T13:03:26;9.30;72.00
15394;DHT22;7795;47.986;11.868;2024-02-23T13:05:52;9.30;71.90
15394;DHT22;7795;47.986;11.868;2024-02-23T13:08:18;9.20;71.70
15394;DHT22;7795;47.986;11.868;2024-02-23T13:10:45;9.20;71.70
15394;DHT22;7795;47.986;11.868;2024-02-23T13:13:11;9.20;71.60
15394;DHT22;7795;47.986;11.868;2024-02-23T13:15:40;9.20;71.60
15394;DHT22;7795;47.986;11.868;2024-02-23T13:18:06;9.20;71.60
15394;DHT22;7795;47.986;11.868;2024-02-23T13:20:32;9.20;71.60
15394;DHT22;7795;47.986;11.868;2024-02-23T13:22:58;9.20;71.70
15394;DHT22;7795;47.986;11.868;2024-02-23T13:25:24;9.20;71.70
15394;DHT22;7795;47.986;11.868;2024-02-23T13:27:51;9.20;71.70
15394;DHT22;7795;47.986;11.868;2024-02-23T13:30:17;9.20;71.60
15394;DHT22;7795;47.986;11.868;2024-02-23T13:32:43;9.20;71.60
15394;DHT22;7795;47.986;11.868;2024-02-23T13:35:08;9.10;71.50
15394;DHT22;7795;47.986;11.868;2024-02-23T13:37:34;9.10;71.40
15394;DHT22;7795;47.986;11.868;2024-02-23T13:40:00;9.10;71.30
15394;DHT22;7795;47.986;11.868;2024-02-23T13:42:26;9.10;71.20
15394;DHT22;7795;47.986;11.868;2024-02-23T13:44:53;9.10;71.10
15394;DHT22;7795;47.986;11.868;2024-02-23T13:47:19;9.10;71.20
15394;DHT22;7795;47.986;11.868;2024-02-23T13:49:44;9.00;71.20
15394;DHT22;7795;47.986;11.868;2024-02-23T13:52:10;9.10;71.20
15394;DHT22;7795;47.986;11.868;2024-02-23T13:54:36;9.00;71.10
15394;DHT22;7795;47.986;11.868;2024-02-23T13:57:02;9.00;71.00
15394;DHT22;7795;47.986;11.868;2024-02-23T13:59:28;9.00;70.90
15394;DHT22;7795;47.986;11.868;2024-02-23T14:01:55;8.90;70.90
15394;DHT22;7795;47.986;11.868;2024-02-23T14:04:21;8.90;70.90
15394;DHT22;7795;47.986;11.868;2024-02-23T14:06:47;8.90;71.20
15394;DHT22;7795;47.986;11.868;2024-02-23T14:09:13;8.90;71.30
15394;DHT22;7795;47.986;11.868;2024-02-23T14:11:39;9.00;71.50
15394;DHT22;7795;47.986;11.868;2024-02-23T14:14:05;9.00;71.30
15394;DHT22;7795;47.986;11.868;2024-02-23T14:16:32;9.00;71.20
15394;DHT22;7795;47.986;11.868;2024-02-23T14:18:59;9.00;71.30
15394;DHT22;7795;47.986;11.868;2024-02-23T14:21:25;9.00;71.10
15394;DHT22;7795;47.986;11.868;2024-02-23T14:23:51;9.00;71.10
15394;DHT22;7795;47.986;11.868;2024-02-23T14:26:16;9.00;71.10
15394;DHT22;7795;47.986;11.868;2024-02-23T14:28:42;9.00;70.90
15394;DHT22;7795;47.986;11.868;2024-02-23T14:31:08;9.00;71.00
15394;DHT22;7795;47.986;11.868;2024-02-23T14:33:34;9.00;71.00
15394;DHT22;7795;47.986;11.868;2024-02-23T14:36:01;9.00;70.80
15394;DHT22;7795;47.986;11.868;2024-02-23T14:38:27;9.00;70.70
15394;DHT22;7795;47.986;11.868;2024-02-23T14:40:53;8.90;70.60
15394;DHT22;7795;47.986;11.868;2024-02-23T14:43:18;9.00;70.70
15394;DHT22;7795;47.986;11.868;2024-02-23T14:45:45;8.90;70.70
15394;DHT22;7795;47.986;11.868;2024-02-23T14:48:10;8.90;70.60
15394;DHT22;7795;47.986;11.868;2024-02-23T14:50:36;8.90;70.70
15394;DHT22;7795;47.986;11.868;2024-02-23T14:53:04;8.90;70.90
15394;DHT22;7795;47.986;11.868;2024-02-23T14:55:30;8.90;70.90
15394;DHT22;7795;47.986;11.868;2024-02-23T14:57:56;8.90;70.70
15394;DHT22;7795;47.986;11.868;2024-02-23T15:00:23;8.80;70.50
15394;DHT22;7795;47.986;11.868;2024-02-23T15:02:49;8.80;70.50
15394;DHT22;7795;47.986;11.868;2024-02-23T15:05:15;8.80;70.50
15394;DHT22;7795;47.986;11.868;2024-02-23T15:07:43;8.80;70.50
15394;DHT22;7795;47.986;11.868;2024-02-23T15:10:10;8.70;70.40
15394;DHT22;7795;47.986;11.868;2024-02-23T15:12:36;8.70;70.40
15394;DHT22;7795;47.986;11.868;2024-02-23T15:15:02;8.70;70.50
15394;DHT22;7795;47.986;11.868;2024-02-23T15:17:29;8.70;70.60
15394;DHT22;7795;47.986;11.868;2024-02-23T15:19:55;8.60;70.60
15394;DHT22;7795;47.986;11.868;2024-02-23T15:22:21;8.60;70.50
15394;DHT22;7795;47.986;11.868;2024-02-23T15:24:47;8.60;71.30
15394;DHT22;7795;47.986;11.868;2024-02-23T15:27:16;8.60;70.70
15394;DHT22;7795;47.986;11.868;2024-02-23T15:29:42;8.50;70.60
15394;DHT22;7795;47.986;11.868;2024-02-23T15:32:08;8.50;70.60
15394;DHT22;7795;47.986;11.868;2024-02-23T15:34:35;8.40;70.60